createdAt,value
2019-03-19T00:01:46.757Z,2.53
2019-03-19T00:04:14.002Z,2.17
2019-03-19T00:06:41.549Z,2.23
2019-03-19T00:09:08.897Z,2.40
2019-03-19T00:11:36.175Z,4.20
2019-03-19T00:14:03.488Z,2.87
2019-03-19T00:16:30.813Z,2.13
2019-03-19T00:18:58.339Z,2.30
2019-03-19T00:21:25.614Z,2.27
2019-03-19T00:23:52.856Z,3.53
2019-03-19T00:26:20.390Z,2.63
2019-03-19T00:28:47.643Z,2.63
2019-03-19T00:31:15.140Z,3.50
2019-03-19T00:33:42.437Z,3.50
2019-03-19T00:36:09.934Z,3.23
2019-03-19T00:38:37.181Z,2.97
2019-03-19T00:41:04.790Z,2.47
2019-03-19T00:43:32.063Z,2.73
2019-03-19T00:45:59.578Z,2.60
2019-03-19T00:48:27.105Z,2.10
2019-03-19T00:50:54.617Z,3.30
2019-03-19T00:53:21.977Z,2.80
2019-03-19T00:55:49.218Z,2.70
2019-03-19T00:58:16.715Z,2.73
2019-03-19T01:00:43.979Z,2.70
2019-03-19T01:03:11.255Z,2.97
2019-03-19T01:05:38.498Z,2.80
2019-03-19T01:08:06.091Z,2.47
2019-03-19T01:10:33.366Z,2.67
2019-03-19T01:13:00.613Z,3.13
2019-03-19T01:15:27.886Z,2.77
2019-03-19T01:17:55.396Z,2.70
2019-03-19T01:20:23.012Z,3.60
2019-03-19T01:22:50.523Z,2.90
2019-03-19T01:25:18.788Z,2.80
2019-03-19T01:27:46.188Z,2.97
2019-03-19T01:30:14.125Z,3.50
2019-03-19T01:32:41.367Z,2.43
2019-03-19T01:35:08.642Z,3.00
2019-03-19T01:37:36.143Z,2.73
2019-03-19T01:40:05.018Z,2.50
2019-03-19T01:42:32.543Z,2.83
2019-03-19T01:44:59.805Z,3.17
2019-03-19T01:47:27.051Z,3.23
2019-03-19T01:49:54.330Z,2.83
2019-03-19T01:52:21.833Z,2.97
2019-03-19T01:54:49.113Z,3.27
2019-03-19T01:57:16.619Z,4.17
2019-03-19T01:59:44.115Z,3.03
2019-03-19T02:02:11.392Z,3.97
2019-03-19T02:04:38.670Z,4.40
2019-03-19T02:07:05.912Z,3.70
2019-03-19T02:09:33.187Z,3.40
2019-03-19T02:12:00.460Z,3.83
2019-03-19T02:14:27.733Z,4.10
2019-03-19T02:16:54.979Z,4.40
2019-03-19T02:19:22.256Z,3.60
2019-03-19T02:21:49.500Z,3.40
2019-03-19T02:24:17.017Z,4.10
2019-03-19T02:26:44.267Z,4.67
2019-03-19T02:29:11.542Z,4.07
2019-03-19T02:31:38.805Z,4.40
2019-03-19T02:34:06.040Z,4.17
2019-03-19T02:36:33.391Z,3.50
2019-03-19T02:39:00.636Z,4.47
2019-03-19T02:41:28.158Z,4.10
2019-03-19T02:43:55.399Z,4.80
2019-03-19T02:46:22.674Z,4.20
2019-03-19T02:48:49.932Z,4.20
2019-03-19T02:51:17.259Z,4.00
2019-03-19T02:53:44.501Z,4.53
2019-03-19T02:56:12.029Z,4.30
2019-03-19T02:58:39.280Z,5.40
2019-03-19T03:01:06.559Z,4.23
2019-03-19T03:03:34.059Z,5.07
2019-03-19T03:06:01.335Z,4.43
2019-03-19T03:08:28.598Z,5.10
2019-03-19T03:10:56.132Z,4.90
2019-03-19T03:13:23.407Z,5.10
2019-03-19T03:15:50.654Z,4.70
2019-03-19T03:18:17.937Z,5.43
2019-03-19T03:20:45.207Z,6.17
2019-03-19T03:23:12.493Z,4.80
2019-03-19T03:25:39.733Z,5.43
2019-03-19T03:28:07.045Z,4.60
2019-03-19T03:30:34.330Z,4.47
2019-03-19T03:33:01.575Z,5.30
2019-03-19T03:35:28.927Z,4.83
2019-03-19T03:37:56.166Z,5.93
2019-03-19T03:40:24.289Z,5.70
2019-03-19T03:42:51.531Z,5.27
2019-03-19T03:45:19.295Z,5.90
2019-03-19T03:47:46.542Z,6.63
2019-03-19T03:50:14.605Z,6.13
2019-03-19T03:52:41.881Z,6.70
2019-03-19T03:55:10.109Z,6.30
2019-03-19T03:57:37.634Z,6.00
2019-03-19T04:00:09.654Z,6.77
2019-03-19T04:02:37.182Z,6.30
2019-03-19T04:05:05.897Z,7.13
2019-03-19T04:07:33.440Z,6.73
2019-03-19T04:10:00.694Z,6.57
2019-03-19T04:12:27.974Z,6.40
2019-03-19T04:14:55.220Z,7.50
2019-03-19T04:17:22.469Z,7.37
2019-03-19T04:19:49.738Z,6.27
2019-03-19T04:22:17.009Z,6.20
2019-03-19T04:24:44.546Z,8.43
2019-03-19T04:27:16.444Z,6.07
2019-03-19T04:29:41.083Z,6.23
2019-03-19T04:32:08.379Z,7.00
2019-03-19T04:34:35.716Z,6.80
2019-03-19T04:37:02.994Z,7.40
2019-03-19T04:39:30.267Z,7.63
2019-03-19T04:41:57.537Z,6.27
2019-03-19T04:44:24.829Z,7.87
2019-03-19T04:46:52.145Z,6.90
2019-03-19T04:49:19.678Z,7.30
2019-03-19T04:51:46.927Z,7.63
2019-03-19T04:54:14.433Z,7.13
2019-03-19T04:56:41.958Z,7.13
2019-03-19T04:59:09.203Z,7.87
2019-03-19T05:01:36.749Z,8.00
2019-03-19T05:04:04.062Z,7.13
2019-03-19T05:06:31.338Z,7.60
2019-03-19T05:08:58.666Z,7.83
2019-03-19T05:11:25.958Z,7.40
2019-03-19T05:13:53.344Z,8.70
2019-03-19T05:16:20.621Z,7.17
2019-03-19T05:18:47.870Z,7.30
2019-03-19T05:21:15.391Z,7.93
2019-03-19T05:23:42.662Z,7.40
2019-03-19T05:26:09.948Z,7.70
2019-03-19T05:28:37.221Z,8.17
2019-03-19T05:31:04.502Z,7.20
2019-03-19T05:33:31.750Z,6.27
2019-03-19T05:35:59.015Z,6.87
2019-03-19T05:38:26.289Z,7.57
2019-03-19T05:40:53.540Z,6.80
2019-03-19T05:43:20.789Z,8.57
2019-03-19T05:45:48.076Z,7.17
2019-03-19T05:48:15.592Z,9.70
2019-03-19T05:50:42.837Z,8.50
2019-03-19T05:53:10.114Z,8.47
2019-03-19T05:55:37.371Z,7.33
2019-03-19T05:58:04.641Z,8.40
2019-03-19T06:00:33.779Z,8.17
2019-03-19T06:03:01.281Z,8.13
2019-03-19T06:05:28.553Z,8.70
2019-03-19T06:07:55.883Z,8.13
2019-03-19T06:10:23.154Z,8.97
2019-03-19T06:12:50.434Z,7.63
2019-03-19T06:15:17.755Z,8.37
2019-03-19T06:17:45.323Z,8.40
2019-03-19T06:20:15.807Z,8.60
2019-03-19T06:22:43.134Z,9.40
2019-03-19T06:25:10.787Z,9.90
2019-03-19T06:27:38.032Z,8.20
2019-03-19T06:30:12.761Z,7.63
2019-03-19T06:32:40.011Z,7.70
2019-03-19T06:35:08.365Z,10.10
2019-03-19T06:37:35.616Z,8.63
2019-03-19T06:40:03.957Z,8.60
2019-03-19T06:42:31.207Z,9.00
2019-03-19T06:44:58.485Z,8.63
2019-03-19T06:47:25.733Z,9.77
2019-03-19T06:49:53.014Z,10.20
2019-03-19T06:52:20.525Z,9.70
2019-03-19T06:54:48.027Z,9.30
2019-03-19T06:57:15.381Z,10.00
2019-03-19T06:59:42.654Z,9.50
2019-03-19T07:02:09.900Z,9.13
2019-03-19T07:04:37.183Z,10.00
2019-03-19T07:07:04.794Z,8.93
2019-03-19T07:09:32.322Z,9.87
2019-03-19T07:12:01.462Z,10.30
2019-03-19T07:14:28.576Z,8.60
2019-03-19T07:16:55.826Z,9.73
2019-03-19T07:19:23.101Z,8.70
2019-03-19T07:21:50.345Z,7.97
2019-03-19T07:24:17.628Z,8.37
2019-03-19T07:26:45.159Z,10.27
2019-03-19T07:29:12.411Z,11.30
2019-03-19T07:31:39.947Z,10.40
2019-03-19T07:34:07.234Z,10.20
2019-03-19T07:36:34.493Z,10.87
2019-03-19T07:39:01.770Z,10.87
2019-03-19T07:41:29.904Z,11.50
2019-03-19T07:43:57.179Z,11.10
2019-03-19T07:46:24.463Z,10.90
2019-03-19T07:48:51.717Z,11.50
2019-03-19T07:51:19.014Z,10.10
2019-03-19T07:53:46.252Z,9.30
2019-03-19T07:56:13.501Z,10.30
2019-03-19T07:58:45.156Z,10.63
2019-03-19T08:01:09.783Z,9.83
2019-03-19T08:03:37.066Z,10.27
2019-03-19T08:06:04.318Z,10.20
2019-03-19T08:08:31.593Z,7.10
2019-03-19T08:10:58.877Z,6.50
2019-03-19T08:13:26.151Z,6.60
2019-03-19T08:15:53.397Z,7.30
2019-03-19T08:18:20.710Z,6.87
2019-03-19T08:20:47.962Z,7.50
2019-03-19T08:23:15.210Z,7.50
2019-03-19T08:25:42.492Z,6.10
2019-03-19T08:28:09.748Z,5.33
2019-03-19T08:30:36.995Z,5.30
2019-03-19T08:33:04.279Z,5.10
2019-03-19T08:35:31.566Z,6.30
2019-03-19T08:37:58.814Z,8.30
2019-03-19T08:40:26.094Z,7.50
2019-03-19T08:42:53.388Z,6.37
2019-03-19T08:45:21.436Z,4.50
2019-03-19T08:47:48.726Z,6.93
2019-03-19T08:50:16.743Z,5.70
2019-03-19T08:52:43.993Z,5.57
2019-03-19T08:55:11.589Z,6.60
2019-03-19T08:57:38.908Z,6.20
2019-03-19T09:00:07.707Z,7.60
2019-03-19T09:02:35.054Z,6.20
2019-03-19T09:05:03.158Z,5.70
2019-03-19T09:07:30.562Z,5.90
2019-03-19T09:09:57.809Z,6.60
2019-03-19T09:12:25.090Z,4.50
2019-03-19T09:14:52.609Z,3.60
2019-03-19T09:17:19.858Z,3.60
2019-03-19T09:19:47.135Z,4.10
2019-03-19T09:22:15.195Z,4.07
2019-03-19T09:24:42.779Z,3.57
2019-03-19T09:27:10.057Z,3.20
2019-03-19T09:29:37.393Z,3.60
2019-03-19T09:32:04.703Z,2.97
2019-03-19T09:34:31.974Z,3.07
2019-03-19T09:36:59.226Z,3.93
2019-03-19T09:39:26.767Z,4.73
2019-03-19T09:41:54.258Z,3.23
2019-03-19T09:44:21.539Z,3.90
2019-03-19T09:46:48.786Z,3.13
2019-03-19T09:49:16.315Z,3.33
2019-03-19T09:51:43.586Z,3.13
2019-03-19T09:54:10.830Z,3.10
2019-03-19T09:56:38.116Z,2.97
2019-03-19T09:59:05.402Z,3.40
2019-03-19T10:01:32.647Z,2.93
2019-03-19T10:03:59.894Z,3.60
2019-03-19T10:06:27.175Z,3.23
2019-03-19T10:08:54.696Z,3.80
2019-03-19T10:11:22.219Z,3.50
2019-03-19T10:13:49.470Z,3.47
2019-03-19T10:16:16.758Z,3.20
2019-03-19T10:18:43.990Z,4.10
2019-03-19T10:21:11.272Z,4.20
2019-03-19T10:23:38.814Z,4.63
2019-03-19T10:26:06.125Z,3.70
2019-03-19T10:28:33.675Z,4.20
2019-03-19T10:31:00.953Z,5.03
2019-03-19T10:33:28.234Z,3.97
2019-03-19T10:35:55.506Z,4.80
2019-03-19T10:38:22.786Z,3.40
2019-03-19T10:40:50.306Z,3.87
2019-03-19T10:43:17.574Z,3.73
2019-03-19T10:45:44.858Z,3.67
2019-03-19T10:48:12.100Z,3.53
2019-03-19T10:50:39.376Z,3.30
2019-03-19T10:53:06.627Z,3.80
2019-03-19T10:55:33.906Z,4.23
2019-03-19T10:58:10.681Z,4.20
2019-03-19T11:00:30.182Z,3.70
2019-03-19T11:02:57.430Z,4.00
2019-03-19T11:05:24.978Z,3.80
2019-03-19T11:07:52.281Z,3.27
2019-03-19T11:10:19.628Z,3.70
2019-03-19T11:12:46.974Z,3.67
2019-03-19T11:15:15.286Z,3.27
2019-03-19T11:17:42.554Z,2.80
2019-03-19T11:20:11.265Z,2.80
2019-03-19T11:22:38.795Z,2.30
2019-03-19T11:25:07.654Z,3.03
2019-03-19T11:27:34.934Z,2.97
2019-03-19T11:30:02.186Z,2.80
2019-03-19T11:32:29.716Z,2.53
2019-03-19T11:34:56.995Z,2.60
2019-03-19T11:37:24.233Z,3.00
2019-03-19T11:39:51.519Z,3.00
2019-03-19T11:42:18.798Z,2.47
2019-03-19T11:44:46.080Z,2.80
2019-03-19T11:47:13.318Z,2.67
2019-03-19T11:49:40.597Z,2.50
2019-03-19T11:52:07.842Z,2.53
2019-03-19T11:54:35.110Z,2.50
2019-03-19T11:57:02.369Z,3.03
2019-03-19T11:59:29.868Z,2.40
2019-03-19T12:01:57.158Z,3.27
2019-03-19T12:04:24.433Z,2.80
2019-03-19T12:06:51.925Z,3.50
2019-03-19T12:09:19.466Z,2.90
2019-03-19T12:11:46.709Z,3.10
2019-03-19T12:14:14.196Z,3.00
2019-03-19T12:16:41.470Z,3.30
2019-03-19T12:19:08.753Z,3.57
2019-03-19T12:21:36.073Z,2.93
2019-03-19T12:24:03.375Z,3.23
2019-03-19T12:26:30.621Z,3.10
2019-03-19T12:28:57.869Z,3.73
2019-03-19T12:31:25.150Z,2.60
2019-03-19T12:33:52.397Z,3.20
2019-03-19T12:36:19.926Z,3.73
2019-03-19T12:38:47.174Z,3.10
2019-03-19T12:41:14.527Z,3.20
2019-03-19T12:43:42.034Z,2.87
2019-03-19T12:46:09.567Z,2.87
2019-03-19T12:48:36.819Z,3.07
2019-03-19T12:51:04.159Z,3.20
2019-03-19T12:53:31.693Z,3.90
2019-03-19T12:55:59.179Z,3.20
2019-03-19T12:58:26.717Z,3.43
2019-03-19T13:00:53.974Z,4.10
2019-03-19T13:03:21.534Z,3.60
2019-03-19T13:05:48.807Z,3.13
2019-03-19T13:08:16.100Z,3.10
2019-03-19T13:10:43.593Z,3.93
2019-03-19T13:13:10.870Z,3.07
2019-03-19T13:15:38.356Z,2.77
2019-03-19T13:18:05.763Z,3.20
2019-03-19T13:20:33.030Z,3.30
2019-03-19T13:23:00.274Z,2.70
2019-03-19T13:25:27.554Z,2.90
2019-03-19T13:27:54.806Z,3.00
2019-03-19T13:30:25.741Z,2.80
2019-03-19T13:32:52.990Z,2.90
2019-03-19T13:35:20.274Z,3.07
2019-03-19T13:37:47.810Z,3.10
2019-03-19T13:40:16.016Z,3.00
2019-03-19T13:42:43.586Z,3.03
2019-03-19T13:45:12.365Z,3.23
2019-03-19T13:47:39.650Z,2.90
2019-03-19T13:50:08.129Z,3.07
2019-03-19T13:52:35.371Z,3.17
2019-03-19T13:55:02.817Z,3.30
2019-03-19T13:57:30.091Z,3.53
2019-03-19T13:59:57.363Z,2.80
2019-03-19T14:02:24.634Z,2.90
2019-03-19T14:04:52.153Z,3.23
2019-03-19T14:07:19.687Z,2.33
2019-03-19T14:09:47.051Z,3.03
2019-03-19T14:12:14.303Z,2.90
2019-03-19T14:14:41.799Z,2.60
2019-03-19T14:17:09.345Z,3.83
2019-03-19T14:19:36.874Z,7.57
2019-03-19T14:22:04.129Z,3.43
2019-03-19T14:24:31.406Z,2.73
2019-03-19T14:26:58.674Z,2.70
2019-03-19T14:29:25.945Z,3.03
2019-03-19T14:31:53.221Z,2.60
2019-03-19T14:34:20.551Z,2.80
2019-03-19T14:36:48.059Z,2.20
2019-03-19T14:39:16.468Z,2.20
2019-03-19T14:41:45.705Z,3.00
2019-03-19T14:44:13.048Z,2.70
2019-03-19T14:46:40.348Z,2.90
2019-03-19T14:49:07.665Z,2.43
2019-03-19T14:51:34.918Z,2.70
2019-03-19T14:54:02.452Z,2.97
2019-03-19T14:56:29.689Z,2.63
2019-03-19T14:58:56.961Z,2.10
2019-03-19T15:01:24.244Z,2.47
2019-03-19T15:03:51.885Z,2.57
2019-03-19T15:06:19.209Z,3.07
2019-03-19T15:08:46.456Z,2.80
2019-03-19T15:11:14.317Z,3.33
2019-03-19T15:13:41.565Z,2.10
2019-03-19T15:16:08.910Z,2.43
2019-03-19T15:18:36.196Z,2.83
2019-03-19T15:21:03.471Z,2.70
2019-03-19T15:23:30.768Z,2.83
2019-03-19T15:25:59.331Z,2.67
2019-03-19T15:28:26.687Z,2.73
2019-03-19T15:30:54.208Z,1.97
2019-03-19T15:33:21.501Z,2.57
2019-03-19T15:35:48.752Z,2.77
2019-03-19T15:38:16.058Z,5.53
2019-03-19T15:40:43.307Z,2.93
2019-03-19T15:43:10.558Z,3.40
2019-03-19T15:45:37.840Z,2.50
2019-03-19T15:48:05.172Z,2.90
2019-03-19T15:50:32.852Z,2.30
2019-03-19T15:53:02.022Z,2.00
2019-03-19T15:55:29.403Z,2.03
2019-03-19T15:57:56.673Z,2.30
2019-03-19T16:00:24.118Z,2.23
2019-03-19T16:02:51.447Z,3.10
2019-03-19T16:05:18.696Z,2.40
2019-03-19T16:07:45.983Z,2.50
2019-03-19T16:10:13.594Z,3.07
2019-03-19T16:12:40.834Z,2.63
2019-03-19T16:15:09.477Z,2.90
2019-03-19T16:17:36.751Z,2.63
2019-03-19T16:20:05.898Z,2.90
2019-03-19T16:22:33.150Z,2.90
2019-03-19T16:25:00.430Z,2.20
2019-03-19T16:27:27.663Z,2.60
2019-03-19T16:29:55.189Z,2.40
2019-03-19T16:32:22.437Z,2.93
2019-03-19T16:34:49.683Z,2.30
2019-03-19T16:37:16.959Z,2.33
2019-03-19T16:39:44.450Z,2.27
2019-03-19T16:42:11.729Z,2.70
2019-03-19T16:44:39.005Z,2.10
2019-03-19T16:47:06.246Z,2.23
2019-03-19T16:49:33.519Z,2.47
2019-03-19T16:52:00.769Z,2.30
2019-03-19T16:54:28.009Z,2.27
2019-03-19T16:56:55.330Z,2.13
2019-03-19T16:59:22.911Z,1.90
2019-03-19T17:01:57.885Z,2.10
2019-03-19T17:04:19.406Z,2.47
2019-03-19T17:06:46.675Z,2.80
2019-03-19T17:09:13.922Z,2.40
2019-03-19T17:11:41.199Z,1.83
2019-03-19T17:14:08.522Z,1.97
2019-03-19T17:16:35.805Z,2.87
2019-03-19T17:19:04.161Z,2.43
2019-03-19T17:21:31.483Z,2.50
2019-03-19T17:23:58.722Z,2.20
2019-03-19T17:26:25.999Z,2.03
2019-03-19T17:28:53.274Z,2.47
2019-03-19T17:31:20.553Z,2.13
2019-03-19T17:33:47.822Z,2.57
2019-03-19T17:36:15.109Z,2.27
2019-03-19T17:38:42.347Z,1.90
2019-03-19T17:41:09.870Z,2.50
2019-03-19T17:43:37.362Z,2.60
2019-03-19T17:46:04.877Z,2.60
2019-03-19T17:48:32.130Z,2.00
2019-03-19T17:50:59.664Z,2.00
2019-03-19T17:53:26.946Z,2.70
2019-03-19T17:55:54.209Z,2.10
2019-03-19T17:58:21.462Z,2.00
2019-03-19T18:00:50.372Z,2.40
2019-03-19T18:03:17.646Z,1.60
2019-03-19T18:05:44.894Z,2.17
2019-03-19T18:08:12.167Z,2.20
2019-03-19T18:10:39.437Z,2.20
2019-03-19T18:13:06.903Z,2.27
2019-03-19T18:15:34.241Z,2.03
2019-03-19T18:18:01.505Z,2.13
2019-03-19T18:20:28.824Z,2.40
2019-03-19T18:22:56.207Z,2.20
2019-03-19T18:25:23.474Z,2.03
2019-03-19T18:27:50.789Z,2.10
2019-03-19T18:30:24.515Z,2.00
2019-03-19T18:32:51.811Z,1.73
2019-03-19T18:35:19.197Z,1.30
2019-03-19T18:37:47.168Z,1.90
2019-03-19T18:40:15.267Z,2.17
2019-03-19T18:42:42.757Z,1.70
2019-03-19T18:45:10.969Z,1.80
2019-03-19T18:47:38.275Z,1.77
2019-03-19T18:50:10.074Z,2.30
2019-03-19T18:52:37.356Z,1.93
2019-03-19T18:55:05.942Z,1.60
2019-03-19T18:57:33.293Z,1.93
2019-03-19T19:00:00.561Z,1.87
2019-03-19T19:02:27.806Z,2.00
2019-03-19T19:04:55.078Z,1.40
2019-03-19T19:07:22.387Z,1.90
2019-03-19T19:09:50.235Z,1.90
2019-03-19T19:12:17.974Z,2.37
2019-03-19T19:14:46.014Z,1.60
2019-03-19T19:17:13.460Z,1.93
2019-03-19T19:19:40.798Z,1.67
2019-03-19T19:22:08.114Z,1.60
2019-03-19T19:24:35.662Z,2.07
2019-03-19T19:27:03.038Z,1.80
2019-03-19T19:29:30.558Z,1.50
2019-03-19T19:31:57.797Z,1.80
2019-03-19T19:34:25.415Z,1.53
2019-03-19T19:36:52.665Z,1.73
2019-03-19T19:39:19.941Z,1.50
2019-03-19T19:41:47.475Z,1.73
2019-03-19T19:44:15.010Z,1.40
2019-03-19T19:46:42.507Z,1.40
2019-03-19T19:49:09.781Z,1.67
2019-03-19T19:51:37.286Z,1.87
2019-03-19T19:54:04.602Z,1.60
2019-03-19T19:56:31.877Z,1.83
2019-03-19T19:58:59.122Z,1.60
2019-03-19T20:01:26.390Z,1.40
2019-03-19T20:03:53.929Z,1.40
2019-03-19T20:06:21.278Z,1.43
2019-03-19T20:08:48.584Z,1.60
2019-03-19T20:11:15.897Z,1.67
2019-03-19T20:13:43.175Z,1.60
2019-03-19T20:16:10.691Z,1.73
2019-03-19T20:18:38.240Z,1.30
2019-03-19T20:21:05.486Z,1.90
2019-03-19T20:23:32.763Z,1.37
2019-03-19T20:26:00.291Z,1.53
2019-03-19T20:28:27.779Z,1.40
2019-03-19T20:30:55.047Z,1.47
2019-03-19T20:33:25.047Z,3.03
2019-03-19T20:35:51.544Z,1.53
2019-03-19T20:38:18.789Z,2.20
2019-03-19T20:40:46.065Z,1.90
2019-03-19T20:43:13.310Z,1.60
2019-03-19T20:45:40.556Z,1.57
2019-03-19T20:48:07.827Z,1.27
2019-03-19T20:50:36.143Z,1.60
2019-03-19T20:53:03.741Z,1.40
2019-03-19T20:55:30.985Z,1.80
2019-03-19T20:57:58.271Z,1.50
2019-03-19T21:00:25.522Z,1.80
2019-03-19T21:02:52.860Z,1.60
2019-03-19T21:05:20.129Z,1.50
2019-03-19T21:07:47.672Z,1.60
2019-03-19T21:10:16.378Z,1.73
2019-03-19T21:12:43.846Z,1.50
2019-03-19T21:15:23.802Z,2.20
2019-03-19T21:17:51.125Z,1.50
2019-03-19T21:20:18.414Z,1.90
2019-03-19T21:22:45.722Z,2.37
2019-03-19T21:25:13.100Z,1.53
2019-03-19T21:27:40.430Z,1.87
2019-03-19T21:30:09.476Z,1.80
2019-03-19T21:32:37.214Z,1.70
2019-03-19T21:35:05.853Z,1.93
2019-03-19T21:37:33.509Z,2.00
2019-03-19T21:40:01.319Z,1.90
2019-03-19T21:42:28.830Z,2.00
2019-03-19T21:44:56.141Z,1.90
2019-03-19T21:47:23.422Z,2.07
2019-03-19T21:49:50.667Z,2.47
2019-03-19T21:52:17.999Z,1.73
2019-03-19T21:54:45.333Z,1.93
2019-03-19T21:57:12.669Z,1.70
2019-03-19T21:59:40.194Z,2.20
2019-03-19T22:02:07.461Z,2.10
2019-03-19T22:04:35.057Z,1.60
2019-03-19T22:07:02.297Z,2.10
2019-03-19T22:09:29.567Z,1.87
2019-03-19T22:11:56.847Z,2.00
2019-03-19T22:14:24.193Z,1.53
2019-03-19T22:16:51.438Z,2.20
2019-03-19T22:19:18.958Z,1.67
2019-03-19T22:21:46.210Z,2.17
2019-03-19T22:24:13.478Z,2.00
2019-03-19T22:26:41.574Z,1.90
2019-03-19T22:29:08.890Z,2.10
2019-03-19T22:31:36.135Z,1.90
2019-03-19T22:34:13.538Z,1.60
2019-03-19T22:36:32.374Z,1.93
2019-03-19T22:38:59.642Z,2.20
2019-03-19T22:41:26.893Z,2.23
2019-03-19T22:43:54.237Z,2.00
2019-03-19T22:46:22.108Z,2.30
2019-03-19T22:48:49.524Z,2.20
2019-03-19T22:51:16.764Z,1.87
2019-03-19T22:53:44.038Z,2.27
2019-03-19T22:56:11.310Z,2.30
2019-03-19T22:58:38.837Z,2.10
2019-03-19T23:01:06.152Z,2.77
2019-03-19T23:03:33.639Z,2.50
2019-03-19T23:06:00.916Z,1.90
2019-03-19T23:08:28.165Z,2.37
2019-03-19T23:10:55.430Z,2.10
2019-03-19T23:13:22.703Z,2.30
2019-03-19T23:15:50.038Z,2.17
2019-03-19T23:18:17.288Z,2.30
2019-03-19T23:20:44.526Z,2.13
2019-03-19T23:23:12.049Z,2.47
2019-03-19T23:25:39.327Z,2.83
2019-03-19T23:28:06.598Z,2.50
2019-03-19T23:30:33.840Z,2.27
2019-03-19T23:33:01.193Z,2.30
2019-03-19T23:35:28.437Z,2.30
2019-03-19T23:37:55.705Z,2.77
2019-03-19T23:40:22.950Z,3.37
2019-03-19T23:42:50.347Z,2.40
2019-03-19T23:45:17.618Z,3.03
2019-03-19T23:47:44.901Z,2.20
2019-03-19T23:50:12.741Z,2.50
2019-03-19T23:52:39.986Z,2.73
2019-03-19T23:55:07.721Z,2.20
2019-03-19T23:57:35.003Z,2.20
